Time;durP1;ratioP1;P1;durP2;ratioP2;P2;SDS_P1;SDS_P2;PMS_P1;PMS_P2;Temp;Humidity;BMP_temperature;BMP_pressure;BME280_temperature;BME280_humidity;BME280_pressure;Samples;Min_cycle;Max_cycle;Signal;HPM_P1;HPM_P2
2022/02/25 00:01:07;;;;;;;2.50;0.70;;;6.80;99.90;;;;;;5094796;28;20729;-62
2022/02/25 00:03:33;;;;;;;2.33;1.00;;;6.70;99.90;;;;;;5095462;28;20416;-63
2022/02/25 00:06:02;;;;;;;2.40;0.60;;;6.60;99.90;;;;;;5094495;28;20592;-62
2022/02/25 00:08:28;;;;;;;1.93;0.60;;;6.50;99.90;;;;;;5095164;28;20738;-62
2022/02/25 00:10:55;;;;;;;2.30;0.77;;;6.50;99.90;;;;;;5095663;28;20651;-62
2022/02/25 00:13:21;;;;;;;1.50;0.57;;;6.50;99.90;;;;;;5095338;28;20584;-62
2022/02/25 00:15:48;;;;;;;5.83;0.97;;;6.50;99.90;;;;;;5094612;28;20228;-65
2022/02/25 00:18:15;;;;;;;3.83;0.90;;;6.40;99.90;;;;;;5093813;28;20204;-66
2022/02/25 00:20:42;;;;;;;2.67;0.87;;;6.20;99.90;;;;;;5095061;28;20214;-64
2022/02/25 00:23:10;;;;;;;4.90;0.97;;;6.10;99.90;;;;;;5095985;28;20233;-63
2022/02/25 00:25:38;;;;;;;2.80;0.80;;;6.10;99.90;;;;;;5094075;28;20296;-64
2022/02/25 00:28:05;;;;;;;2.53;0.60;;;6.00;99.90;;;;;;5095419;28;20228;-64
2022/02/25 00:30:32;;;;;;;1.90;0.87;;;5.90;99.90;;;;;;5095668;28;20208;-69
2022/02/25 00:32:59;;;;;;;1.90;0.97;;;5.80;99.90;;;;;;5095351;28;20205;-62
2022/02/25 00:35:25;;;;;;;4.80;2.17;;;5.70;99.90;;;;;;5095205;28;20251;-62
2022/02/25 00:37:52;;;;;;;3.63;2.10;;;5.60;99.90;;;;;;5094580;28;20204;-62
2022/02/25 00:40:21;;;;;;;2.40;1.00;;;5.60;99.90;;;;;;5094525;28;20573;-62
2022/02/25 00:42:48;;;;;;;2.43;1.10;;;5.50;99.90;;;;;;5094519;28;20208;-62
2022/02/25 00:45:14;;;;;;;2.17;1.00;;;5.50;99.90;;;;;;5094336;28;20224;-62
2022/02/25 00:47:41;;;;;;;2.40;1.03;;;5.40;99.90;;;;;;5093864;28;20258;-62
2022/02/25 00:50:10;;;;;;;2.17;1.00;;;5.30;99.90;;;;;;5094327;28;20674;-62
2022/02/25 00:52:37;;;;;;;2.57;0.90;;;5.20;99.90;;;;;;5094497;28;20239;-61
2022/02/25 00:55:04;;;;;;;1.63;0.90;;;5.20;99.90;;;;;;5094111;28;20723;-61
2022/02/25 00:57:32;;;;;;;2.60;1.27;;;5.20;99.90;;;;;;5093899;28;20698;-61
2022/02/25 00:59:59;;;;;;;2.03;1.20;;;5.20;99.90;;;;;;5094099;28;20254;-62
2022/02/25 01:02:25;;;;;;;2.63;0.90;;;5.20;99.90;;;;;;5094231;28;20212;-61
2022/02/25 01:04:52;;;;;;;1.33;0.93;;;5.10;99.90;;;;;;5094445;28;20224;-61
2022/02/25 01:07:19;;;;;;;2.37;1.07;;;5.10;99.90;;;;;;5093880;28;20208;-61
2022/02/25 01:09:46;;;;;;;3.20;1.10;;;5.20;99.90;;;;;;5093990;28;20656;-61
2022/02/25 01:12:13;;;;;;;1.57;1.00;;;5.40;99.90;;;;;;5093851;28;20667;-61
2022/02/25 01:14:41;;;;;;;2.17;1.07;;;5.50;99.90;;;;;;5093492;28;20596;-62
2022/02/25 01:17:07;;;;;;;6.03;1.53;;;5.60;99.90;;;;;;5093799;28;20231;-61
2022/02/25 01:19:34;;;;;;;3.80;1.30;;;5.60;99.90;;;;;;5094021;28;20211;-62
2022/02/25 01:22:01;;;;;;;3.33;1.50;;;5.50;99.90;;;;;;5093717;28;20686;-62
2022/02/25 01:24:27;;;;;;;2.90;1.20;;;5.40;99.90;;;;;;5093840;28;20632;-62
2022/02/25 01:26:54;;;;;;;2.70;1.50;;;5.30;99.90;;;;;;5093449;28;20234;-61
2022/02/25 01:29:21;;;;;;;3.57;1.07;;;5.20;99.90;;;;;;5093030;28;20220;-61
2022/02/25 01:31:49;;;;;;;3.53;1.00;;;5.10;99.90;;;;;;5093115;28;20204;-62
2022/02/25 01:34:17;;;;;;;1.67;1.27;;;4.90;99.90;;;;;;5093508;28;20281;-62
2022/02/25 01:36:44;;;;;;;2.80;0.93;;;4.80;99.90;;;;;;5093461;28;20219;-62
2022/02/25 01:39:11;;;;;;;3.80;1.20;;;4.70;99.90;;;;;;5093420;28;20199;-62
2022/02/25 01:41:37;;;;;;;2.47;1.60;;;4.70;99.90;;;;;;5093249;28;20261;-61
2022/02/25 01:44:15;;;;;;;4.50;1.60;;;4.70;99.90;;;;;;5093588;28;20204;-62
2022/02/25 01:46:45;;;;;;;2.33;1.07;;;4.70;99.90;;;;;;5093332;28;20227;-62
2022/02/25 01:49:13;;;;;;;4.73;1.40;;;4.60;99.90;;;;;;5093951;28;20224;-62
2022/02/25 01:51:40;;;;;;;2.00;0.90;;;4.50;99.90;;;;;;5093711;28;20210;-62
2022/02/25 01:54:07;;;;;;;2.23;1.20;;;4.50;99.90;;;;;;5093586;28;20199;-62
2022/02/25 01:56:34;;;;;;;3.93;1.50;;;4.40;99.90;;;;;;5093230;28;20581;-62
2022/02/25 01:59:02;;;;;;;2.20;1.03;;;4.40;99.90;;;;;;5093335;28;20245;-62
2022/02/25 02:01:28;;;;;;;4.83;1.33;;;4.40;99.90;;;;;;5093386;28;20647;-62
2022/02/25 02:03:56;;;;;;;3.20;1.20;;;4.30;99.90;;;;;;5093253;28;20670;-62
2022/02/25 02:06:24;;;;;;;3.23;1.20;;;4.30;99.90;;;;;;5092768;28;20212;-62
2022/02/25 02:08:51;;;;;;;3.77;1.50;;;4.30;99.90;;;;;;5092731;28;20224;-61
2022/02/25 02:11:32;;;;;;;3.53;1.23;;;4.20;99.90;;;;;;5093048;28;20207;-61
2022/02/25 02:14:01;;;;;;;2.90;1.20;;;4.30;99.90;;;;;;5092588;28;20542;-62
2022/02/25 02:16:28;;;;;;;4.27;1.27;;;4.20;99.90;;;;;;5092591;28;20212;-62
2022/02/25 02:18:55;;;;;;;2.53;0.93;;;4.20;99.90;;;;;;5092665;28;20207;-62
2022/02/25 02:21:26;;;;;;;3.60;1.20;;;4.10;99.90;;;;;;5092461;28;20249;-61
2022/02/25 02:23:56;;;;;;;2.63;0.97;;;4.00;99.90;;;;;;5092382;28;20629;-61
2022/02/25 02:26:23;;;;;;;4.37;1.13;;;4.30;99.90;;;;;;5092483;28;20299;-61
2022/02/25 02:28:50;;;;;;;5.27;1.33;;;4.00;99.90;;;;;;5092488;28;20224;-61
2022/02/25 02:31:18;;;;;;;2.63;1.30;;;3.90;99.90;;;;;;5092433;28;20208;-61
2022/02/25 02:33:45;;;;;;;1.57;0.80;;;3.90;99.90;;;;;;5092364;28;20208;-61
2022/02/25 02:36:12;;;;;;;4.57;1.10;;;3.90;99.90;;;;;;5092067;28;20278;-61
2022/02/25 02:38:40;;;;;;;2.67;0.80;;;3.90;99.90;;;;;;5092253;28;20574;-61
2022/02/25 02:41:08;;;;;;;1.07;0.57;;;3.90;99.90;;;;;;5091912;28;20204;-61
2022/02/25 02:43:36;;;;;;;4.97;1.00;;;3.80;99.90;;;;;;5092268;28;20216;-61
2022/02/25 02:46:04;;;;;;;2.87;1.03;;;3.80;99.90;;;;;;5092190;28;20235;-62
2022/02/25 02:48:31;;;;;;;4.07;1.03;;;3.80;99.90;;;;;;5091782;28;20595;-62
2022/02/25 02:50:58;;;;;;;3.97;0.93;;;3.90;99.90;;;;;;5092166;28;20715;-62
2022/02/25 02:53:24;;;;;;;5.50;1.00;;;3.80;99.90;;;;;;5092600;28;20201;-61
2022/02/25 02:55:51;;;;;;;3.97;0.90;;;3.80;99.90;;;;;;5092050;28;20644;-61
2022/02/25 02:58:19;;;;;;;6.07;1.30;;;3.80;99.90;;;;;;5091783;28;20208;-61
2022/02/25 03:00:48;;;;;;;3.27;1.00;;;3.80;99.90;;;;;;5092072;28;20200;-61
2022/02/25 03:03:15;;;;;;;5.17;1.00;;;3.80;99.90;;;;;;5091971;28;20296;-61
2022/02/25 03:05:43;;;;;;;2.70;0.87;;;3.80;99.90;;;;;;5092110;28;20273;-61
2022/02/25 03:08:11;;;;;;;4.23;1.10;;;3.80;99.90;;;;;;5091908;28;20245;-61
2022/02/25 03:10:40;;;;;;;3.60;1.10;;;3.80;99.90;;;;;;5092000;28;20235;-62
2022/02/25 03:13:08;;;;;;;2.77;0.90;;;3.70;99.90;;;;;;5091948;28;20211;-61
2022/02/25 03:15:36;;;;;;;4.37;1.20;;;3.80;99.90;;;;;;5125551;22;20290;-60
2022/02/25 03:18:04;;;;;;;3.40;1.20;;;3.80;99.90;;;;;;5104278;28;20247;-61
2022/02/25 03:20:30;;;;;;;2.90;1.13;;;3.80;99.90;;;;;;5113040;28;20225;-59
2022/02/25 03:22:58;;;;;;;5.30;1.23;;;3.90;99.90;;;;;;5112917;28;20580;-58
2022/02/25 03:25:25;;;;;;;2.80;0.80;;;4.00;99.90;;;;;;5112499;28;20223;-59
2022/02/25 03:27:52;;;;;;;3.10;1.20;;;4.10;99.90;;;;;;5112375;28;20207;-59
2022/02/25 03:30:19;;;;;;;2.07;0.80;;;4.30;99.90;;;;;;5112716;28;20219;-59
2022/02/25 03:32:47;;;;;;;3.40;1.00;;;4.30;99.90;;;;;;5112795;28;20207;-60
2022/02/25 03:35:15;;;;;;;6.17;1.30;;;4.40;99.90;;;;;;5112421;28;20785;-59
2022/02/25 03:37:42;;;;;;;3.13;0.80;;;4.40;99.90;;;;;;5112254;28;20199;-60
2022/02/25 03:40:11;;;;;;;7.00;1.60;;;4.40;99.90;;;;;;5112376;28;20682;-59
2022/02/25 03:42:38;;;;;;;4.07;1.10;;;4.50;99.90;;;;;;5112227;28;20199;-60
2022/02/25 03:45:06;;;;;;;4.17;1.43;;;4.70;99.90;;;;;;5112524;28;20216;-60
2022/02/25 03:47:33;;;;;;;4.23;1.50;;;4.80;99.90;;;;;;5112415;28;20621;-59
2022/02/25 03:50:03;;;;;;;2.57;0.87;;;5.00;99.90;;;;;;5112653;28;20230;-60
2022/02/25 03:52:30;;;;;;;3.00;0.90;;;5.10;99.90;;;;;;5112329;28;20200;-60
2022/02/25 03:54:57;;;;;;;3.53;0.90;;;5.30;99.90;;;;;;5115330;28;20223;-59
2022/02/25 03:57:24;;;;;;;4.97;1.20;;;5.30;99.90;;;;;;5116336;28;20303;-59
2022/02/25 03:59:51;;;;;;;4.00;1.40;;;5.30;99.90;;;;;;5116209;27;20574;-60
2022/02/25 04:02:18;;;;;;;2.87;0.97;;;5.10;99.90;;;;;;5116506;28;20769;-60
2022/02/25 04:04:44;;;;;;;6.40;1.30;;;5.00;99.90;;;;;;5115962;28;20659;-59
2022/02/25 04:07:13;;;;;;;4.43;1.60;;;4.80;99.90;;;;;;5115945;28;20207;-60
2022/02/25 04:09:39;;;;;;;7.97;1.50;;;4.70;99.90;;;;;;5115775;28;20215;-60
2022/02/25 04:12:07;;;;;;;5.13;1.50;;;4.50;99.90;;;;;;5115944;28;20207;-59
2022/02/25 04:14:36;;;;;;;5.00;1.60;;;4.40;99.90;;;;;;5115520;28;20239;-60
2022/02/25 04:17:03;;;;;;;4.57;2.63;;;4.30;99.90;;;;;;5115421;28;20214;-59
2022/02/25 04:19:30;;;;;;;10.13;5.27;;;4.30;99.90;;;;;;5115519;28;20204;-60
2022/02/25 04:21:56;;;;;;;4.97;1.53;;;4.30;99.90;;;;;;5115428;28;20253;-60
2022/02/25 04:24:25;;;;;;;2.53;1.17;;;4.50;99.90;;;;;;5115344;28;20732;-59
2022/02/25 04:26:51;;;;;;;6.73;1.77;;;4.70;99.90;;;;;;5115320;28;20239;-60
2022/02/25 04:29:19;;;;;;;3.20;1.03;;;4.90;99.90;;;;;;5115385;28;20284;-60
2022/02/25 04:31:45;;;;;;;6.33;1.17;;;5.10;99.90;;;;;;5115431;28;20213;-60
2022/02/25 04:34:12;;;;;;;3.40;1.77;;;5.20;99.90;;;;;;5115228;28;20248;-59
2022/02/25 04:36:39;;;;;;;2.93;1.40;;;5.40;99.90;;;;;;5114764;27;20663;-61
2022/02/25 04:39:07;;;;;;;10.23;2.37;;;5.50;99.90;;;;;;5115338;28;20211;-60
2022/02/25 04:41:35;;;;;;;4.57;1.13;;;5.60;99.90;;;;;;5115152;27;20618;-60
2022/02/25 04:44:02;;;;;;;4.73;1.50;;;5.70;99.90;;;;;;5115096;28;20199;-59
2022/02/25 04:46:29;;;;;;;5.57;1.20;;;5.80;99.90;;;;;;5114642;27;20227;-60
2022/02/25 04:48:55;;;;;;;4.53;1.37;;;5.90;99.90;;;;;;5114756;28;20683;-60
2022/02/25 04:51:22;;;;;;;4.50;1.80;;;5.90;99.90;;;;;;5114949;28;20280;-60
2022/02/25 04:53:50;;;;;;;2.93;1.00;;;5.90;99.90;;;;;;5115045;28;20322;-61
2022/02/25 04:56:17;;;;;;;7.90;1.50;;;6.00;99.90;;;;;;5114815;28;20660;-60
2022/02/25 04:58:45;;;;;;;5.33;1.67;;;6.10;99.90;;;;;;5114589;28;20207;-61
2022/02/25 05:01:12;;;;;;;5.87;1.87;;;6.10;99.90;;;;;;5114809;28;20199;-60
2022/02/25 05:03:39;;;;;;;4.03;1.43;;;6.20;99.90;;;;;;5114743;28;20210;-60
2022/02/25 05:06:06;;;;;;;3.77;1.30;;;6.20;99.90;;;;;;5114654;28;20227;-60
2022/02/25 05:08:33;;;;;;;3.93;1.37;;;6.30;99.90;;;;;;5114846;27;20739;-60
2022/02/25 05:11:00;;;;;;;6.20;2.77;;;6.20;99.90;;;;;;5114914;28;20230;-60
2022/02/25 05:13:26;;;;;;;4.47;1.40;;;6.30;99.90;;;;;;5115056;28;20203;-60
2022/02/25 05:21:24;;;;;;;9.07;1.47;;;6.00;99.90;;;;;;5114239;28;20228;-60
2022/02/25 05:23:51;;;;;;;4.30;1.40;;;6.20;99.90;;;;;;5114085;28;20567;-60
2022/02/25 05:26:17;;;;;;;3.37;1.23;;;6.20;99.90;;;;;;5113978;28;20255;-60
2022/02/25 05:28:44;;;;;;;7.17;2.17;;;6.30;99.90;;;;;;5113750;28;20253;-60
2022/02/25 05:31:12;;;;;;;4.10;1.60;;;6.40;99.90;;;;;;5114297;28;20223;-60
2022/02/25 05:33:39;;;;;;;6.90;3.20;;;6.40;99.90;;;;;;5114201;28;20257;-60
2022/02/25 05:36:06;;;;;;;8.13;2.83;;;6.40;99.90;;;;;;5114030;28;20284;-60
2022/02/25 05:38:32;;;;;;;3.90;2.40;;;6.40;99.90;;;;;;5113847;28;20203;-60
2022/02/25 05:40:59;;;;;;;4.43;2.20;;;6.40;99.90;;;;;;5113988;28;20196;-60
2022/02/25 05:43:26;;;;;;;4.60;1.83;;;6.40;99.90;;;;;;5113918;28;20216;-60
2022/02/25 05:45:53;;;;;;;5.23;1.37;;;6.40;99.90;;;;;;5114220;27;20227;-61
2022/02/25 05:48:21;;;;;;;7.17;1.60;;;6.40;99.90;;;;;;5114201;28;20203;-60
2022/02/25 05:50:47;;;;;;;6.97;1.77;;;6.40;99.90;;;;;;5114194;28;20219;-60
2022/02/25 05:53:14;;;;;;;5.07;1.40;;;6.30;99.90;;;;;;5113945;28;20208;-59
2022/02/25 05:55:41;;;;;;;6.83;1.60;;;6.30;99.90;;;;;;5113710;28;20219;-60
2022/02/25 05:58:09;;;;;;;8.53;2.70;;;6.20;99.90;;;;;;5113639;28;20582;-59
2022/02/25 06:00:35;;;;;;;10.23;3.90;;;6.20;99.90;;;;;;5114607;28;20276;-60
2022/02/25 06:03:02;;;;;;;8.40;3.20;;;6.30;99.90;;;;;;5113895;28;20207;-60
2022/02/25 06:05:30;;;;;;;3.97;1.90;;;6.30;99.90;;;;;;5113820;28;20223;-60
2022/02/25 06:07:59;;;;;;;3.73;1.47;;;6.30;99.90;;;;;;5113278;27;20211;-61
2022/02/25 06:10:26;;;;;;;3.17;1.77;;;6.30;99.90;;;;;;5113214;27;20227;-60
2022/02/25 06:12:53;;;;;;;5.87;2.00;;;6.30;99.90;;;;;;5113583;28;20211;-61
2022/02/25 06:15:20;;;;;;;2.47;1.00;;;6.20;99.90;;;;;;5112839;28;20661;-59
2022/02/25 06:17:48;;;;;;;9.07;6.90;;;6.20;99.90;;;;;;5112363;28;20237;-59
2022/02/25 06:20:15;;;;;;;6.33;1.73;;;6.20;99.90;;;;;;5113413;28;20286;-59
2022/02/25 06:22:44;;;;;;;8.43;2.23;;;6.20;99.90;;;;;;5113555;28;20207;-60
2022/02/25 06:25:11;;;;;;;6.83;2.17;;;6.20;99.90;;;;;;5113971;28;20224;-59
2022/02/25 06:27:39;;;;;;;7.73;2.20;;;6.20;99.90;;;;;;5113689;28;20210;-61
2022/02/25 06:30:07;;;;;;;9.60;1.90;;;6.10;99.90;;;;;;5113847;27;20224;-59
2022/02/25 06:32:34;;;;;;;4.67;1.60;;;5.90;99.90;;;;;;5113114;28;20675;-61
2022/02/25 06:35:01;;;;;;;7.00;1.70;;;5.80;99.90;;;;;;5113315;28;20223;-62
2022/02/25 06:37:28;;;;;;;6.00;1.30;;;5.70;99.90;;;;;;5112557;28;20207;-60
2022/02/25 06:39:57;;;;;;;7.63;2.40;;;5.60;99.90;;;;;;5112678;28;20199;-62
2022/02/25 06:42:23;;;;;;;9.57;1.80;;;5.50;99.90;;;;;;5113157;27;20556;-60
2022/02/25 06:44:50;;;;;;;5.60;2.03;;;5.40;99.90;;;;;;5113052;28;20232;-61
2022/02/25 06:47:18;;;;;;;5.77;2.00;;;5.40;99.90;;;;;;5112748;28;20260;-59
2022/02/25 06:49:45;;;;;;;11.47;2.13;;;5.40;99.90;;;;;;5112613;28;20295;-61
2022/02/25 06:52:12;;;;;;;11.90;2.23;;;5.40;99.90;;;;;;5112668;28;20211;-60
2022/02/25 06:54:39;;;;;;;11.73;2.43;;;5.40;99.90;;;;;;5113131;28;20252;-61
2022/02/25 06:57:07;;;;;;;13.53;2.90;;;5.40;99.90;;;;;;5112594;28;20215;-61
2022/02/25 06:59:34;;;;;;;11.00;2.90;;;5.70;99.90;;;;;;5112670;28;20661;-61
2022/02/25 07:02:01;;;;;;;21.63;11.00;;;6.30;99.90;;;;;;5112653;28;20303;-60
2022/02/25 07:04:28;;;;;;;15.43;4.93;;;6.90;99.90;;;;;;5112689;28;20204;-59
2022/02/25 07:06:55;;;;;;;8.83;3.00;;;7.50;99.90;;;;;;5112079;28;20219;-60
2022/02/25 07:09:21;;;;;;;7.80;2.00;;;7.60;99.90;;;;;;5112362;28;20666;-60
2022/02/25 07:11:48;;;;;;;7.90;2.30;;;7.60;99.90;;;;;;5112527;28;20223;-60
2022/02/25 07:14:16;;;;;;;5.70;2.00;;;7.50;99.90;;;;;;5112603;28;20244;-60
2022/02/25 07:16:44;;;;;;;4.80;2.30;;;7.80;99.90;;;;;;5112127;28;20256;-60
2022/02/25 07:19:11;;;;;;;10.30;2.40;;;8.40;99.90;;;;;;5112344;28;20211;-62
2022/02/25 07:21:38;;;;;;;6.67;2.73;;;9.20;99.90;;;;;;5112640;28;20207;-61
2022/02/25 07:24:05;;;;;;;5.67;3.47;;;9.70;99.90;;;;;;5112429;28;20667;-61
2022/02/25 07:26:32;;;;;;;5.80;2.87;;;10.30;99.90;;;;;;5112508;28;20268;-61
2022/02/25 07:28:59;;;;;;;4.97;2.57;;;11.00;99.10;;;;;;5113914;28;20264;-61
2022/02/25 07:31:27;;;;;;;7.27;1.90;;;11.50;97.90;;;;;;5116517;28;20227;-61
2022/02/25 07:33:53;;;;;;;3.43;1.67;;;11.80;96.80;;;;;;5116386;28;20203;-61
2022/02/25 07:36:20;;;;;;;4.93;1.83;;;11.80;96.30;;;;;;5116554;27;20231;-61
2022/02/25 07:38:47;;;;;;;6.07;2.00;;;11.70;96.00;;;;;;5116610;28;20211;-61
2022/02/25 07:41:13;;;;;;;11.20;2.50;;;11.70;96.00;;;;;;5116752;28;20200;-60
2022/02/25 07:43:40;;;;;;;9.27;2.47;;;11.40;96.00;;;;;;5116882;28;20203;-60
2022/02/25 07:46:07;;;;;;;5.80;1.97;;;11.00;96.20;;;;;;5116475;28;20230;-60
2022/02/25 07:48:35;;;;;;;4.97;1.77;;;10.20;97.00;;;;;;5116006;28;20618;-60
2022/02/25 07:51:01;;;;;;;6.83;1.97;;;9.30;98.80;;;;;;5116297;28;20224;-60
2022/02/25 07:53:30;;;;;;;6.13;2.20;;;8.50;99.70;;;;;;5116331;28;20203;-60
2022/02/25 07:55:57;;;;;;;7.60;1.83;;;8.00;99.90;;;;;;5116281;28;20254;-61
2022/02/25 07:58:24;;;;;;;5.43;1.83;;;7.70;99.90;;;;;;5116111;28;20647;-61
2022/02/25 08:00:51;;;;;;;11.43;2.00;;;7.50;99.90;;;;;;5116709;28;20203;-59
2022/02/25 08:03:17;;;;;;;7.13;1.93;;;7.20;99.90;;;;;;5116206;28;20260;-59
2022/02/25 08:05:45;;;;;;;5.83;1.90;;;7.30;99.90;;;;;;5116707;28;20250;-62
2022/02/25 08:08:13;;;;;;;10.47;1.90;;;7.40;99.90;;;;;;5117096;28;20208;-59
2022/02/25 08:10:40;;;;;;;8.70;2.10;;;7.60;99.90;;;;;;5116860;28;20266;-60
2022/02/25 08:13:08;;;;;;;5.83;2.00;;;8.10;99.90;;;;;;5116834;28;20207;-59
2022/02/25 08:15:35;;;;;;;7.10;1.80;;;8.50;99.90;;;;;;5116388;28;20349;-59
2022/02/25 08:18:03;;;;;;;7.70;2.13;;;8.70;99.90;;;;;;5115675;28;20718;-59
2022/02/25 08:20:30;;;;;;;6.83;2.17;;;8.90;99.90;;;;;;5115928;28;20207;-59
2022/02/25 08:23:00;;;;;;;6.37;2.17;;;9.10;99.90;;;;;;5115948;27;20210;-59
2022/02/25 08:25:28;;;;;;;8.27;1.77;;;9.20;99.90;;;;;;5116056;28;20288;-59
2022/02/25 08:27:54;;;;;;;4.90;1.73;;;9.40;99.90;;;;;;5115110;28;20212;-60
2022/02/25 08:30:21;;;;;;;8.00;2.37;;;9.50;99.90;;;;;;5115783;28;20231;-59
2022/02/25 08:32:49;;;;;;;8.23;2.10;;;9.50;99.90;;;;;;5115735;28;20210;-60
2022/02/25 08:35:17;;;;;;;9.80;2.07;;;9.60;99.60;;;;;;5115287;28;20235;-60
2022/02/25 08:37:45;;;;;;;8.47;2.10;;;9.50;99.70;;;;;;5115106;28;20207;-59
2022/02/25 08:40:14;;;;;;;8.53;1.97;;;9.40;99.70;;;;;;5114834;28;20663;-59
2022/02/25 08:42:41;;;;;;;8.90;2.13;;;9.40;99.30;;;;;;5115184;28;20211;-60
2022/02/25 08:45:11;;;;;;;6.57;2.27;;;9.60;99.40;;;;;;5115393;28;20330;-59
2022/02/25 08:47:37;;;;;;;6.60;1.90;;;9.80;98.00;;;;;;5114912;28;20218;-59
2022/02/25 08:50:05;;;;;;;5.63;1.90;;;9.90;97.40;;;;;;5115243;28;20252;-60
2022/02/25 08:52:32;;;;;;;8.73;2.03;;;9.90;97.30;;;;;;5115028;28;20253;-60
2022/02/25 08:54:59;;;;;;;8.13;1.90;;;9.90;97.50;;;;;;5114608;28;20220;-60
2022/02/25 08:57:27;;;;;;;9.90;1.93;;;9.90;97.10;;;;;;5114755;27;20207;-59
2022/02/25 08:59:53;;;;;;;9.53;1.63;;;9.80;96.80;;;;;;5114994;28;20203;-59
2022/02/25 09:02:20;;;;;;;8.13;1.83;;;9.60;97.20;;;;;;5114896;28;20582;-59
2022/02/25 09:04:47;;;;;;;5.63;1.97;;;9.50;97.10;;;;;;5114756;28;20227;-60
2022/02/25 09:07:14;;;;;;;5.70;1.80;;;9.40;97.40;;;;;;5114322;28;20699;-60
2022/02/25 09:09:41;;;;;;;9.67;1.70;;;9.40;97.40;;;;;;5114518;28;20257;-60
2022/02/25 09:12:09;;;;;;;9.67;1.90;;;9.30;97.60;;;;;;5114612;28;20319;-59
2022/02/25 09:14:37;;;;;;;4.33;1.80;;;9.50;97.50;;;;;;5115166;28;20235;-59
2022/02/25 09:17:04;;;;;;;7.17;2.00;;;9.80;97.40;;;;;;5114691;28;20208;-59
2022/02/25 09:19:31;;;;;;;8.57;2.30;;;10.10;96.60;;;;;;5114827;28;20206;-60
2022/02/25 09:21:58;;;;;;;8.37;1.87;;;10.30;95.90;;;;;;5114904;28;20204;-58
2022/02/25 09:24:24;;;;;;;40.57;12.53;;;10.60;95.70;;;;;;5115157;28;20211;-59
2022/02/25 09:26:51;;;;;;;6.57;2.10;;;10.90;95.30;;;;;;5114956;28;20204;-59
2022/02/25 09:29:18;;;;;;;12.70;2.30;;;11.20;94.80;;;;;;5114468;28;20207;-60
2022/02/25 09:31:46;;;;;;;6.03;2.43;;;11.40;94.30;;;;;;5114552;28;20223;-62
2022/02/25 09:34:13;;;;;;;9.83;1.97;;;11.60;94.10;;;;;;5114206;28;20211;-59
2022/02/25 09:36:41;;;;;;;7.37;2.20;;;11.80;93.60;;;;;;5114402;28;20250;-60
2022/02/25 09:39:10;;;;;;;6.70;1.83;;;11.90;93.40;;;;;;5114154;28;20207;-59
2022/02/25 09:41:37;;;;;;;6.77;1.50;;;12.10;92.80;;;;;;5114294;28;20299;-60
2022/02/25 09:44:04;;;;;;;6.18;1.48;;;12.20;92.60;;;;;;5113296;27;20445;-62
2022/02/25 09:46:31;;;;;;;6.87;1.60;;;12.20;92.10;;;;;;5092157;28;20232;-61
2022/02/25 09:48:59;;;;;;;5.43;1.97;;;12.10;92.00;;;;;;5093381;28;20208;-63
2022/02/25 09:51:26;;;;;;;8.53;1.90;;;12.00;92.30;;;;;;5092937;28;20265;-60
2022/02/25 09:53:53;;;;;;;4.33;1.90;;;11.90;91.70;;;;;;5093545;28;20304;-62
2022/02/25 09:56:20;;;;;;;4.47;1.27;;;11.90;91.40;;;;;;5093214;28;20247;-63
2022/02/25 09:58:47;;;;;;;4.60;1.60;;;11.80;91.50;;;;;;5093262;28;20204;-63
2022/02/25 10:01:13;;;;;;;6.37;1.67;;;11.70;91.50;;;;;;5093155;28;20207;-64
2022/02/25 10:03:40;;;;;;;7.63;1.67;;;11.60;91.40;;;;;;5092893;28;20208;-60
2022/02/25 10:06:10;;;;;;;6.17;1.67;;;11.50;92.00;;;;;;5092882;28;20745;-63
2022/02/25 10:08:38;;;;;;;6.80;1.67;;;11.40;91.30;;;;;;5093160;28;20261;-64
2022/02/25 10:11:06;;;;;;;4.97;1.33;;;11.30;91.10;;;;;;5093344;28;20216;-64
2022/02/25 10:13:34;;;;;;;4.90;1.60;;;11.10;91.20;;;;;;5093249;28;20212;-64
2022/02/25 10:16:03;;;;;;;6.63;1.87;;;11.10;91.40;;;;;;5092701;28;20238;-64
2022/02/25 10:18:32;;;;;;;6.47;1.63;;;11.20;91.60;;;;;;5092628;28;20610;-64
2022/02/25 10:21:03;;;;;;;7.53;1.30;;;11.40;90.30;;;;;;5093214;28;20257;-64
2022/02/25 10:23:34;;;;;;;4.57;1.30;;;11.60;88.80;;;;;;5093190;28;20257;-64
2022/02/25 10:26:09;;;;;;;6.17;1.70;;;11.60;88.00;;;;;;5093136;28;20228;-64
2022/02/25 10:28:37;;;;;;;4.90;1.50;;;11.50;87.50;;;;;;5092578;28;20609;-63
2022/02/25 10:31:21;;;;;;;6.43;1.97;;;11.50;87.10;;;;;;5093041;28;20720;-63
2022/02/25 10:34:00;;;;;;;6.40;2.40;;;11.50;86.10;;;;;;5092736;28;20242;-63
2022/02/25 10:36:44;;;;;;;6.90;1.60;;;11.40;85.60;;;;;;5092483;28;20228;-64
2022/02/25 10:39:13;;;;;;;3.87;1.60;;;11.60;86.90;;;;;;5092241;28;20602;-61
2022/02/25 10:41:40;;;;;;;4.73;1.47;;;11.80;85.40;;;;;;5092718;28;20291;-61
2022/02/25 10:44:07;;;;;;;5.63;1.70;;;11.90;84.00;;;;;;5092604;28;20291;-61
2022/02/25 10:46:35;;;;;;;3.23;1.07;;;11.90;82.90;;;;;;5092491;28;20608;-61
2022/02/25 10:49:06;;;;;;;5.77;1.50;;;11.80;82.20;;;;;;5092343;28;20646;-62
2022/02/25 10:51:36;;;;;;;7.33;2.20;;;11.60;82.90;;;;;;5092311;28;20281;-62
2022/02/25 10:54:05;;;;;;;7.17;1.93;;;11.60;83.10;;;;;;5092637;28;20619;-62
2022/02/25 10:56:46;;;;;;;4.57;1.30;;;11.60;83.10;;;;;;5092137;28;20311;-62
2022/02/25 10:59:13;;;;;;;7.63;2.00;;;11.60;83.40;;;;;;5092366;28;20227;-62
2022/02/25 11:01:40;;;;;;;4.17;1.53;;;11.70;85.20;;;;;;5092108;28;20572;-62
2022/02/25 11:04:09;;;;;;;2.73;1.10;;;11.60;83.10;;;;;;5091932;28;20204;-62
2022/02/25 11:06:36;;;;;;;6.83;1.53;;;11.60;82.40;;;;;;5092236;28;20593;-63
2022/02/25 11:09:05;;;;;;;3.57;1.33;;;11.50;84.20;;;;;;5092128;28;20293;-63
2022/02/25 11:11:33;;;;;;;3.73;1.40;;;11.30;83.40;;;;;;5092068;28;20310;-63
2022/02/25 11:14:03;;;;;;;5.50;1.37;;;11.10;84.50;;;;;;5092309;28;20204;-63
2022/02/25 11:16:32;;;;;;;4.87;1.53;;;11.00;86.30;;;;;;5091553;28;20737;-63
2022/02/25 11:19:03;;;;;;;4.83;1.90;;;11.00;85.10;;;;;;5091825;28;20208;-62
2022/02/25 11:21:31;;;;;;;7.97;1.30;;;11.20;84.40;;;;;;5092234;28;20327;-63
2022/02/25 11:23:58;;;;;;;4.70;1.50;;;11.50;85.10;;;;;;5092362;28;20200;-62
2022/02/25 11:26:24;;;;;;;5.50;2.13;;;11.80;80.10;;;;;;5091798;28;20220;-62
2022/02/25 11:28:51;;;;;;;3.07;1.00;;;11.80;80.10;;;;;;5091794;28;20261;-62
2022/02/25 11:31:25;;;;;;;5.27;1.40;;;11.80;79.30;;;;;;5091536;28;20327;-62
2022/02/25 11:33:53;;;;;;;3.53;1.30;;;11.90;81.00;;;;;;5091997;28;20237;-62
2022/02/25 11:36:21;;;;;;;4.77;1.20;;;12.10;80.10;;;;;;5091746;28;20231;-62
2022/02/25 11:38:48;;;;;;;5.73;1.37;;;12.10;80.60;;;;;;5091777;28;20204;-62
2022/02/25 11:41:19;;;;;;;4.67;1.40;;;12.20;79.10;;;;;;5092080;28;20526;-62
2022/02/25 11:43:48;;;;;;;4.97;1.13;;;12.10;79.50;;;;;;5091840;28;20204;-62
2022/02/25 11:46:23;;;;;;;7.87;1.60;;;12.00;80.00;;;;;;5091887;28;20704;-63
2022/02/25 11:48:51;;;;;;;5.57;1.73;;;11.70;80.90;;;;;;5091731;28;20210;-63
2022/02/25 11:51:34;;;;;;;7.20;1.80;;;11.50;81.70;;;;;;5091724;28;20208;-60
2022/02/25 11:54:35;;;;;;;9.10;1.67;;;11.30;81.90;;;;;;5091559;28;20695;-62
2022/02/25 11:57:24;;;;;;;5.90;1.80;;;11.10;81.10;;;;;;5029277;28;20240;-61
2022/02/25 12:00:14;;;;;;;5.97;1.50;;;11.00;82.20;;;;;;5029026;28;20296;-62
2022/02/25 12:03:12;;;;;;;6.73;1.50;;;10.90;83.70;;;;;;5076670;28;20197;-62
2022/02/25 12:05:46;;;;;;;4.97;1.67;;;11.00;84.30;;;;;;5091651;28;20232;-62
2022/02/25 12:08:25;;;;;;;7.30;1.70;;;11.10;82.90;;;;;;5091280;28;20214;-63
2022/02/25 12:10:52;;;;;;;7.10;2.00;;;11.30;82.60;;;;;;5091366;28;20213;-63
2022/02/25 12:13:27;;;;;;;4.67;1.20;;;11.50;82.90;;;;;;5091517;28;20282;-63
2022/02/25 12:15:54;;;;;;;5.17;1.70;;;11.60;82.00;;;;;;5093988;28;20316;-61
2022/02/25 12:18:38;;;;;;;5.70;1.58;;;11.60;81.50;;;;;;5094779;28;20489;-64
2022/02/25 12:21:08;;;;;;;3.77;1.23;;;11.50;81.50;;;;;;5092552;28;20203;-63
2022/02/25 12:23:46;;;;;;;4.07;1.43;;;11.50;82.20;;;;;;5094766;28;20215;-62
2022/02/25 12:26:13;;;;;;;5.13;1.47;;;11.60;82.40;;;;;;5093575;28;20255;-62
2022/02/25 12:28:54;;;;;;;6.60;1.70;;;11.50;82.30;;;;;;5094627;28;20581;-63
2022/02/25 12:31:26;;;;;;;6.87;1.47;;;11.50;82.70;;;;;;5094615;28;20280;-63
2022/02/25 12:34:02;;;;;;;3.70;1.40;;;10.90;82.10;;;;;;5094905;28;20204;-63
2022/02/25 12:36:43;;;;;;;6.27;1.40;;;10.70;82.50;;;;;;5094970;28;20228;-63
2022/02/25 12:39:22;;;;;;;4.43;1.40;;;10.50;83.50;;;;;;5094928;28;20254;-62
2022/02/25 12:41:54;;;;;;;3.17;1.30;;;10.40;84.40;;;;;;5095107;28;20284;-62
2022/02/25 12:44:23;;;;;;;6.43;1.40;;;10.50;84.10;;;;;;5094280;28;20318;-62
2022/02/25 12:46:51;;;;;;;3.67;1.47;;;10.70;82.50;;;;;;5094855;28;20207;-62
2022/02/25 12:49:21;;;;;;;6.37;1.80;;;10.70;83.00;;;;;;5094746;28;20212;-62
2022/02/25 12:51:49;;;;;;;4.57;1.60;;;10.70;83.40;;;;;;5094788;28;20246;-62
2022/02/25 12:54:17;;;;;;;7.83;2.37;;;10.90;83.10;;;;;;5094347;28;20200;-62
2022/02/25 12:56:46;;;;;;;4.97;1.50;;;11.10;81.80;;;;;;5094369;28;20651;-62
2022/02/25 12:59:15;;;;;;;6.00;1.33;;;11.20;81.60;;;;;;5094409;28;20207;-61
2022/02/25 13:01:48;;;;;;;7.73;1.80;;;11.30;81.10;;;;;;5094370;28;20215;-62
2022/02/25 13:04:18;;;;;;;6.33;1.70;;;11.30;81.80;;;;;;5094356;28;20223;-62